createdAt,value
2022-12-03T00:00:17.289Z,77.03
2022-12-03T00:03:04.988Z,77.53
2022-12-03T00:05:33.186Z,76.88
2022-12-03T00:08:00.730Z,77.27
2022-12-03T00:10:28.684Z,77.13
2022-12-03T00:12:56.247Z,77.29
2022-12-03T00:15:24.145Z,77.10
2022-12-03T00:17:51.721Z,77.00
2022-12-03T00:20:23.477Z,76.86
2022-12-03T00:22:51.482Z,76.38
2022-12-03T00:25:19.303Z,76.36
2022-12-03T00:27:46.907Z,76.27
2022-12-03T00:30:15.193Z,76.56
2022-12-03T00:32:43.054Z,76.24
2022-12-03T00:35:11.151Z,76.38
2022-12-03T00:37:38.732Z,75.77
2022-12-03T00:40:07.869Z,75.78
2022-12-03T00:42:35.424Z,75.60
2022-12-03T00:45:05.402Z,75.78
2022-12-03T00:47:32.958Z,75.76
2022-12-03T00:50:00.835Z,76.06
2022-12-03T00:52:28.334Z,75.41
2022-12-03T00:54:56.346Z,75.31
2022-12-03T00:57:23.940Z,75.39
2022-12-03T00:59:51.966Z,75.08
2022-12-03T01:02:19.624Z,75.11
2022-12-03T01:04:48.091Z,75.39
2022-12-03T01:07:15.729Z,75.49
2022-12-03T01:09:43.669Z,75.00
2022-12-03T01:12:12.062Z,75.35
2022-12-03T01:14:40.422Z,75.63
2022-12-03T01:17:07.945Z,74.97
2022-12-03T01:19:36.501Z,75.46
2022-12-03T01:22:04.565Z,75.68
2022-12-03T01:24:32.479Z,75.54
2022-12-03T01:27:00.991Z,75.30
2022-12-03T01:29:28.943Z,75.06
2022-12-03T01:32:14.877Z,75.56
2022-12-03T01:34:44.608Z,75.71
2022-12-03T01:37:12.490Z,75.33
2022-12-03T01:39:41.121Z,75.01
2022-12-03T01:42:21.035Z,76.14
2022-12-03T01:44:57.472Z,76.26
2022-12-03T01:47:31.403Z,76.58
2022-12-03T01:50:27.341Z,76.78
2022-12-03T01:52:59.491Z,77.07
2022-12-03T01:55:28.936Z,77.72
2022-12-03T01:58:01.021Z,77.17
2022-12-03T02:00:30.056Z,77.32
2022-12-03T02:03:02.240Z,77.37
2022-12-03T02:05:33.987Z,77.86
2022-12-03T02:08:01.782Z,77.69
2022-12-03T02:10:36.214Z,77.31
2022-12-03T02:13:08.524Z,77.76
2022-12-03T02:15:39.319Z,76.96
2022-12-03T02:18:09.241Z,77.61
2022-12-03T02:21:01.930Z,77.21
2022-12-03T02:23:59.174Z,77.65
2022-12-03T02:26:27.306Z,77.61
2022-12-03T02:28:55.123Z,77.62
2022-12-03T02:31:23.879Z,77.54
2022-12-03T02:33:51.634Z,76.95
2022-12-03T02:36:19.967Z,77.50
2022-12-03T02:38:49.678Z,77.70
2022-12-03T02:41:51.313Z,77.90
2022-12-03T02:44:19.049Z,77.52
2022-12-03T02:46:46.916Z,77.78
2022-12-03T02:49:14.615Z,77.69
2022-12-03T02:51:42.511Z,77.14
2022-12-03T02:54:11.727Z,77.14
2022-12-03T02:56:40.761Z,76.69
2022-12-03T02:59:08.399Z,77.02
2022-12-03T03:01:36.309Z,77.06
2022-12-03T03:04:05.711Z,77.25
2022-12-03T03:06:34.552Z,77.17
2022-12-03T03:09:04.227Z,76.37
2022-12-03T03:11:32.533Z,76.28
2022-12-03T03:14:03.300Z,76.56
2022-12-03T03:16:33.266Z,76.33
2022-12-03T03:19:02.310Z,76.80
2022-12-03T03:21:30.825Z,76.90
2022-12-03T03:23:58.478Z,76.75
2022-12-03T03:26:26.758Z,77.00
2022-12-03T03:28:54.450Z,76.87
2022-12-03T03:31:24.535Z,77.07
2022-12-03T03:33:52.460Z,77.34
2022-12-03T03:36:20.841Z,77.18
2022-12-03T03:38:49.079Z,77.80
2022-12-03T03:41:17.714Z,76.96
2022-12-03T03:43:46.132Z,77.24
2022-12-03T03:46:15.041Z,77.41
2022-12-03T03:48:43.811Z,77.16
2022-12-03T03:51:13.159Z,77.12
2022-12-03T03:53:47.898Z,77.16
2022-12-03T03:56:18.107Z,77.13
2022-12-03T03:58:45.989Z,77.50
2022-12-03T04:01:15.374Z,77.11
2022-12-03T04:03:43.072Z,77.52
2022-12-03T04:06:11.432Z,77.33
2022-12-03T04:08:38.933Z,77.31
2022-12-03T04:11:25.892Z,77.65
2022-12-03T04:13:53.419Z,77.22
2022-12-03T04:16:21.367Z,77.32
2022-12-03T04:18:48.978Z,77.65
2022-12-03T04:21:39.120Z,77.36
2022-12-03T04:24:09.236Z,77.48
2022-12-03T04:26:55.765Z,77.28
2022-12-03T04:29:23.671Z,77.55
2022-12-03T04:32:10.063Z,77.68
2022-12-03T04:34:56.644Z,77.20
2022-12-03T04:37:24.912Z,77.56
2022-12-03T04:39:52.551Z,77.09
2022-12-03T04:42:20.503Z,77.43
2022-12-03T04:44:48.031Z,77.73
2022-12-03T04:47:22.005Z,77.70
2022-12-03T04:49:51.878Z,78.02
2022-12-03T04:52:21.016Z,77.58
2022-12-03T04:54:48.919Z,77.74
2022-12-03T04:57:16.956Z,78.18
2022-12-03T04:59:44.578Z,77.75
2022-12-03T05:02:12.522Z,77.92
2022-12-03T05:04:40.356Z,77.93
2022-12-03T05:07:08.267Z,77.57
2022-12-03T05:09:35.851Z,77.70
2022-12-03T05:12:04.062Z,78.06
2022-12-03T05:14:31.773Z,78.28
2022-12-03T05:16:59.829Z,78.82
2022-12-03T05:19:47.460Z,78.85
2022-12-03T05:22:15.414Z,78.63
2022-12-03T05:24:43.001Z,77.95
2022-12-03T05:27:10.902Z,77.09
2022-12-03T05:29:38.365Z,76.65
2022-12-03T05:32:06.475Z,82.21
2022-12-03T05:34:34.036Z,77.50
2022-12-03T05:37:01.844Z,74.03
2022-12-03T05:39:29.370Z,73.50
2022-12-03T05:42:16.160Z,68.91
2022-12-03T05:44:43.753Z,68.60
2022-12-03T05:47:11.620Z,68.59
2022-12-03T05:49:39.111Z,69.24
2022-12-03T05:52:07.080Z,69.85
2022-12-03T05:54:34.631Z,70.46
2022-12-03T05:57:02.443Z,71.63
2022-12-03T05:59:29.953Z,72.89
2022-12-03T06:01:57.802Z,72.44
2022-12-03T06:04:25.398Z,73.04
2022-12-03T06:06:53.405Z,73.13
2022-12-03T06:09:20.947Z,73.26
2022-12-03T06:11:53.540Z,74.08
2022-12-03T06:14:21.755Z,74.29
2022-12-03T06:16:49.709Z,74.28
2022-12-03T06:19:17.956Z,73.53
2022-12-03T06:21:45.726Z,74.01
2022-12-03T06:24:13.350Z,74.36
2022-12-03T06:26:41.218Z,75.20
2022-12-03T06:29:08.839Z,75.62
2022-12-03T06:31:37.057Z,75.94
2022-12-03T06:34:04.671Z,76.42
2022-12-03T06:36:32.523Z,76.90
2022-12-03T06:39:00.044Z,77.23
2022-12-03T06:41:27.993Z,77.85
2022-12-03T06:43:55.536Z,78.65
2022-12-03T06:46:23.449Z,78.90
2022-12-03T06:48:50.988Z,78.47
2022-12-03T06:51:18.865Z,78.39
2022-12-03T06:53:46.442Z,78.80
2022-12-03T06:56:14.333Z,78.72
2022-12-03T06:58:41.806Z,78.30
2022-12-03T07:01:09.789Z,78.29
2022-12-03T07:03:37.346Z,78.11
2022-12-03T07:06:05.471Z,78.04
2022-12-03T07:08:32.999Z,78.13
2022-12-03T07:11:00.962Z,77.75
2022-12-03T07:13:29.257Z,78.12
2022-12-03T07:15:57.172Z,78.24
2022-12-03T07:18:24.830Z,78.21
2022-12-03T07:20:52.720Z,78.17
2022-12-03T07:23:20.808Z,78.18
2022-12-03T07:25:48.626Z,78.25
2022-12-03T07:28:16.165Z,77.76
2022-12-03T07:30:43.934Z,77.72
2022-12-03T07:33:11.440Z,78.08
2022-12-03T07:35:39.357Z,78.17
2022-12-03T07:38:06.821Z,77.56
2022-12-03T07:40:34.658Z,77.61
2022-12-03T07:43:02.220Z,77.99
2022-12-03T07:45:30.163Z,77.51
2022-12-03T07:47:57.922Z,77.57
2022-12-03T07:50:28.298Z,76.74
2022-12-03T07:52:56.577Z,77.10
2022-12-03T07:55:25.396Z,76.20
2022-12-03T07:57:53.063Z,76.74
2022-12-03T08:00:21.717Z,76.49
2022-12-03T08:02:49.582Z,76.43
2022-12-03T08:05:17.828Z,76.27
2022-12-03T08:07:45.500Z,76.50
2022-12-03T08:10:14.049Z,76.50
2022-12-03T08:12:41.563Z,76.70
2022-12-03T08:15:21.935Z,76.58
2022-12-03T08:18:05.448Z,76.38
2022-12-03T08:20:38.920Z,76.00
2022-12-03T08:23:18.000Z,76.44
2022-12-03T08:25:46.849Z,76.81
2022-12-03T08:28:23.051Z,76.97
2022-12-03T08:31:00.967Z,76.50
2022-12-03T08:33:37.297Z,75.82
2022-12-03T08:36:31.137Z,76.72
2022-12-03T08:39:33.630Z,76.65
2022-12-03T08:42:37.167Z,76.28
2022-12-03T08:45:39.928Z,76.43
2022-12-03T08:48:40.696Z,76.03
2022-12-03T08:51:25.514Z,75.62
2022-12-03T08:54:02.166Z,75.16
2022-12-03T08:56:33.733Z,74.79
2022-12-03T08:59:30.762Z,74.71
2022-12-03T09:01:59.929Z,74.44
2022-12-03T09:04:46.726Z,74.45
2022-12-03T09:07:14.271Z,74.93
2022-12-03T09:09:42.139Z,74.65
2022-12-03T09:12:09.789Z,74.87
2022-12-03T09:14:37.674Z,74.19
2022-12-03T09:17:06.065Z,73.93
2022-12-03T09:19:33.988Z,74.22
2022-12-03T09:22:01.566Z,73.74
2022-12-03T09:24:29.400Z,73.79
2022-12-03T09:26:56.918Z,73.45
2022-12-03T09:29:24.817Z,73.32
2022-12-03T09:31:53.495Z,73.82
2022-12-03T09:34:21.477Z,73.33
2022-12-03T09:36:49.041Z,72.84
2022-12-03T09:39:16.932Z,72.72
2022-12-03T09:41:44.923Z,73.25
2022-12-03T09:44:17.427Z,72.59
2022-12-03T09:46:46.756Z,72.48
2022-12-03T09:49:18.361Z,72.18
2022-12-03T09:51:46.728Z,72.11
2022-12-03T09:54:24.510Z,72.32
2022-12-03T09:56:55.629Z,72.06
2022-12-03T09:59:27.609Z,71.85
2022-12-03T10:01:55.711Z,71.62
2022-12-03T10:04:24.407Z,71.29
2022-12-03T10:06:52.370Z,71.06
2022-12-03T10:09:28.324Z,70.96
2022-12-03T10:12:00.102Z,70.90
2022-12-03T10:14:29.094Z,70.83
2022-12-03T10:16:58.441Z,71.02
2022-12-03T10:19:29.230Z,70.81
2022-12-03T10:21:57.424Z,70.91
2022-12-03T10:24:33.452Z,70.91
2022-12-03T10:27:30.715Z,70.58
2022-12-03T10:30:02.021Z,70.62
2022-12-03T10:32:46.639Z,70.71
2022-12-03T10:35:36.926Z,71.17
2022-12-03T10:38:22.385Z,70.84
2022-12-03T10:40:50.966Z,70.67
2022-12-03T10:43:18.476Z,70.36
2022-12-03T10:45:48.609Z,70.20
2022-12-03T10:48:25.599Z,70.38
2022-12-03T10:51:08.046Z,70.08
2022-12-03T10:53:39.131Z,70.15
2022-12-03T10:56:13.852Z,69.58
2022-12-03T10:58:42.385Z,69.50
2022-12-03T11:01:36.922Z,70.36
2022-12-03T11:04:05.977Z,69.19
2022-12-03T11:06:34.214Z,68.35
2022-12-03T11:09:08.800Z,68.75
2022-12-03T11:11:37.190Z,68.48
2022-12-03T11:14:05.417Z,68.30
2022-12-03T11:16:42.763Z,68.29
2022-12-03T11:19:13.387Z,67.83
2022-12-03T11:22:06.390Z,67.59
2022-12-03T11:24:37.667Z,67.06
2022-12-03T11:27:07.182Z,66.78
2022-12-03T11:30:01.367Z,66.80
2022-12-03T11:32:38.803Z,66.57
2022-12-03T11:35:24.428Z,66.83
2022-12-03T11:37:52.929Z,66.49
2022-12-03T11:40:20.385Z,66.36
2022-12-03T11:42:49.852Z,65.42
2022-12-03T11:45:35.778Z,65.10
2022-12-03T11:48:15.377Z,65.30
2022-12-03T11:50:52.479Z,64.63
2022-12-03T11:53:27.329Z,63.91
2022-12-03T11:56:09.213Z,64.16
2022-12-03T11:58:42.737Z,64.49
2022-12-03T12:01:10.764Z,63.56
2022-12-03T12:03:47.052Z,63.73
2022-12-03T12:06:21.738Z,64.06
2022-12-03T12:08:52.016Z,64.78
2022-12-03T12:11:31.259Z,64.47
2022-12-03T12:14:07.651Z,64.40
2022-12-03T12:16:50.630Z,65.24
2022-12-03T12:19:43.984Z,63.87
2022-12-03T12:22:17.080Z,63.89
2022-12-03T12:24:51.535Z,63.71
2022-12-03T12:27:21.594Z,64.27
2022-12-03T12:30:09.038Z,64.19
2022-12-03T12:33:00.516Z,64.59
2022-12-03T12:35:32.620Z,64.50
2022-12-03T12:38:12.722Z,64.47
2022-12-03T12:40:45.655Z,64.49
2022-12-03T12:43:25.191Z,64.36
2022-12-03T12:46:46.250Z,63.99
2022-12-03T12:49:01.770Z,63.53
2022-12-03T12:51:29.637Z,63.07
2022-12-03T12:53:57.945Z,63.16
2022-12-03T12:56:31.098Z,62.86
2022-12-03T12:59:12.484Z,62.55
2022-12-03T13:01:42.216Z,61.97
2022-12-03T13:04:15.165Z,62.02
2022-12-03T13:06:44.025Z,62.14
2022-12-03T13:09:38.696Z,61.08
2022-12-03T13:12:19.401Z,60.56
2022-12-03T13:14:47.445Z,60.11
2022-12-03T13:17:26.138Z,60.04
2022-12-03T13:20:05.158Z,60.78
2022-12-03T13:22:35.512Z,60.39
2022-12-03T13:26:00.308Z,60.65
2022-12-03T13:28:24.489Z,60.41
2022-12-03T13:30:52.310Z,60.07
2022-12-03T13:33:26.321Z,60.14
2022-12-03T13:35:56.487Z,59.51
2022-12-03T13:38:25.902Z,59.74
2022-12-03T13:41:03.833Z,60.26
2022-12-03T13:43:33.389Z,60.13
2022-12-03T13:46:01.383Z,60.82
2022-12-03T13:48:36.106Z,61.62
2022-12-03T13:51:43.613Z,62.12
2022-12-03T13:54:20.640Z,62.63
2022-12-03T13:56:49.395Z,62.67
2022-12-03T13:59:22.971Z,63.34
2022-12-03T14:01:53.703Z,63.78
2022-12-03T14:04:21.736Z,64.39
2022-12-03T14:06:49.341Z,64.81
2022-12-03T14:09:17.268Z,64.73
2022-12-03T14:12:03.466Z,64.86
2022-12-03T14:14:31.519Z,65.23
2022-12-03T14:17:00.175Z,65.85
2022-12-03T14:19:28.479Z,65.91
2022-12-03T14:21:56.440Z,66.08
2022-12-03T14:24:24.597Z,66.33
2022-12-03T14:26:52.275Z,66.73
2022-12-03T14:29:20.312Z,66.79
2022-12-03T14:31:47.831Z,67.08
2022-12-03T14:34:16.058Z,67.36
2022-12-03T14:36:44.323Z,67.40
2022-12-03T14:39:12.440Z,67.57
2022-12-03T14:41:58.943Z,68.01
2022-12-03T14:44:27.242Z,68.01
2022-12-03T14:46:57.402Z,68.96
2022-12-03T14:49:25.731Z,69.49
2022-12-03T14:51:54.079Z,69.42
2022-12-03T14:54:22.156Z,70.40
2022-12-03T14:56:49.890Z,70.70
2022-12-03T14:59:20.724Z,70.76
2022-12-03T15:01:52.465Z,71.58
2022-12-03T15:04:20.466Z,72.29
2022-12-03T15:06:48.098Z,71.83
2022-12-03T15:09:16.037Z,72.25
2022-12-03T15:11:46.327Z,72.02
2022-12-03T15:14:14.911Z,72.32
2022-12-03T15:16:42.574Z,72.61
2022-12-03T15:19:10.443Z,72.59
2022-12-03T15:21:38.040Z,73.19
2022-12-03T15:24:06.375Z,73.49
2022-12-03T15:26:33.932Z,73.04
2022-12-03T15:29:02.007Z,73.63
2022-12-03T15:31:29.767Z,73.21
2022-12-03T15:33:57.631Z,73.58
2022-12-03T15:36:25.301Z,74.43
2022-12-03T15:38:53.278Z,73.53
2022-12-03T15:41:21.493Z,74.58
2022-12-03T15:43:51.047Z,74.77
2022-12-03T15:46:20.699Z,75.20
2022-12-03T15:48:49.546Z,75.12
2022-12-03T15:51:17.375Z,75.25
2022-12-03T15:53:45.547Z,75.37
2022-12-03T15:56:14.115Z,75.34
2022-12-03T15:58:42.264Z,75.49
2022-12-03T16:01:10.364Z,75.35
2022-12-03T16:03:38.288Z,75.42
2022-12-03T16:06:06.384Z,75.32
2022-12-03T16:08:34.385Z,75.89
2022-12-03T16:11:01.995Z,75.40
2022-12-03T16:13:29.951Z,75.99
2022-12-03T16:15:57.485Z,75.16
2022-12-03T16:18:25.434Z,75.16
2022-12-03T16:20:53.074Z,75.46
2022-12-03T16:23:21.017Z,75.61
2022-12-03T16:25:48.584Z,75.32
2022-12-03T16:28:16.716Z,76.04
2022-12-03T16:30:44.475Z,76.29
2022-12-03T16:33:12.392Z,76.61
2022-12-03T16:35:40.074Z,76.74
2022-12-03T16:38:07.969Z,77.29
2022-12-03T16:40:35.503Z,77.00
2022-12-03T16:43:04.902Z,76.91
2022-12-03T16:45:35.436Z,76.62
2022-12-03T16:48:03.531Z,76.48
2022-12-03T16:50:31.148Z,76.37
2022-12-03T16:52:59.091Z,76.71
2022-12-03T16:55:26.709Z,76.31
2022-12-03T16:57:54.552Z,76.17
2022-12-03T17:00:22.308Z,76.92
2022-12-03T17:02:50.249Z,76.99
2022-12-03T17:05:18.003Z,77.42
2022-12-03T17:07:45.839Z,76.82
2022-12-03T17:10:13.573Z,77.58
2022-12-03T17:13:08.893Z,77.07
2022-12-03T17:15:29.194Z,77.65
2022-12-03T17:17:57.350Z,77.92
2022-12-03T17:20:25.260Z,77.86
2022-12-03T17:22:53.243Z,78.22
2022-12-03T17:25:21.047Z,78.52
2022-12-03T17:27:49.024Z,78.29
2022-12-03T17:30:17.000Z,78.17
2022-12-03T17:32:44.998Z,77.87
2022-12-03T17:35:12.883Z,77.61
2022-12-03T17:37:40.931Z,78.17
2022-12-03T17:40:12.246Z,78.27
2022-12-03T17:42:40.305Z,78.34
2022-12-03T17:45:09.042Z,78.62
2022-12-03T17:47:36.963Z,78.65
2022-12-03T17:50:05.330Z,79.24
2022-12-03T17:52:33.336Z,78.83
2022-12-03T17:55:26.452Z,78.62
2022-12-03T17:57:49.109Z,78.91
2022-12-03T18:00:17.132Z,79.11
2022-12-03T18:02:45.182Z,79.67
2022-12-03T18:05:14.259Z,80.16
2022-12-03T18:07:42.303Z,80.31
2022-12-03T18:10:10.174Z,80.65
2022-12-03T18:12:38.209Z,80.61
2022-12-03T18:15:06.724Z,80.28
2022-12-03T18:17:34.620Z,79.95
2022-12-03T18:20:02.503Z,80.28
2022-12-03T18:22:31.468Z,79.77
2022-12-03T18:24:59.311Z,80.31
2022-12-03T18:27:27.252Z,80.62
2022-12-03T18:29:54.905Z,79.84
2022-12-03T18:32:30.324Z,80.84
2022-12-03T18:34:58.557Z,81.04
2022-12-03T18:37:29.395Z,80.38
2022-12-03T18:39:58.503Z,80.40
2022-12-03T18:42:26.800Z,80.79
2022-12-03T18:44:56.305Z,81.22
2022-12-03T18:47:28.997Z,81.20
2022-12-03T18:49:57.448Z,81.10
2022-12-03T18:52:25.753Z,80.70
2022-12-03T18:54:54.476Z,81.38
2022-12-03T18:57:22.412Z,81.72
2022-12-03T18:59:49.939Z,81.42
2022-12-03T19:05:09.713Z,80.65
2022-12-03T19:07:37.822Z,81.06
2022-12-03T19:10:06.314Z,81.47
2022-12-03T19:12:34.296Z,81.25
2022-12-03T19:15:02.923Z,81.09
2022-12-03T19:17:31.074Z,81.87
2022-12-03T19:19:59.760Z,81.29
2022-12-03T19:22:27.586Z,81.54
2022-12-03T19:24:55.149Z,80.95
2022-12-03T19:27:23.174Z,81.28
2022-12-03T19:29:51.042Z,81.18
2022-12-03T19:32:18.957Z,81.12
2022-12-03T19:34:46.613Z,80.61
2022-12-03T19:37:14.699Z,81.20
2022-12-03T19:39:43.201Z,81.43
2022-12-03T19:42:11.164Z,81.32
2022-12-03T19:44:39.360Z,81.81
2022-12-03T19:47:07.245Z,80.58
2022-12-03T19:49:34.911Z,81.59
2022-12-03T19:52:02.925Z,81.28
2022-12-03T19:54:30.454Z,81.14
2022-12-03T19:56:58.359Z,80.93
2022-12-03T19:59:26.014Z,81.15
2022-12-03T20:01:54.038Z,81.95
2022-12-03T20:04:21.718Z,81.30
2022-12-03T20:06:49.701Z,81.61
2022-12-03T20:09:18.030Z,81.24
2022-12-03T20:11:46.528Z,81.74
2022-12-03T20:14:17.018Z,81.18
2022-12-03T20:16:47.425Z,81.61
2022-12-03T20:19:18.106Z,81.75
2022-12-03T20:21:46.176Z,81.64
2022-12-03T20:24:17.621Z,81.95
2022-12-03T20:26:45.779Z,81.40
2022-12-03T20:29:13.848Z,81.46
2022-12-03T20:31:41.946Z,81.36
2022-12-03T20:34:11.410Z,81.58
2022-12-03T20:36:40.014Z,81.57
2022-12-03T20:39:08.500Z,81.70
2022-12-03T20:41:37.885Z,81.48
2022-12-03T20:44:07.665Z,82.00
2022-12-03T20:46:36.426Z,81.87
2022-12-03T20:49:04.660Z,81.86
2022-12-03T20:51:32.945Z,81.16
2022-12-03T20:54:01.747Z,81.45
2022-12-03T20:56:36.777Z,81.11
2022-12-03T20:59:07.869Z,80.05
2022-12-03T21:01:36.704Z,79.91
2022-12-03T21:04:05.934Z,79.61
2022-12-03T21:06:35.980Z,79.56
2022-12-03T21:09:07.943Z,80.09
2022-12-03T21:11:39.141Z,79.39
2022-12-03T21:14:06.789Z,80.10
2022-12-03T21:19:25.995Z,79.45
2022-12-03T21:21:53.907Z,79.20
2022-12-03T21:24:21.483Z,79.01
2022-12-03T21:26:50.322Z,79.22
2022-12-03T21:29:18.270Z,78.55
2022-12-03T21:31:46.758Z,78.27
2022-12-03T21:34:14.759Z,79.04
2022-12-03T21:36:42.979Z,78.56
2022-12-03T21:39:10.594Z,79.04
2022-12-03T21:41:38.630Z,78.68
2022-12-03T21:44:06.235Z,79.23
2022-12-03T21:47:10.097Z,78.35
2022-12-03T21:49:22.789Z,78.50
2022-12-03T21:51:50.761Z,77.84
2022-12-03T21:54:18.537Z,77.83
2022-12-03T21:56:46.552Z,78.03
2022-12-03T21:59:14.598Z,77.71
2022-12-03T22:01:46.938Z,78.09
2022-12-03T22:04:15.630Z,77.59
2022-12-03T22:06:43.775Z,77.66
2022-12-03T22:09:14.756Z,77.87
2022-12-03T22:11:45.887Z,77.12
2022-12-03T22:14:13.565Z,77.45
2022-12-03T22:16:41.364Z,76.31
2022-12-03T22:19:08.914Z,76.04
2022-12-03T22:21:36.864Z,76.04
2022-12-03T22:24:04.870Z,75.34
2022-12-03T22:26:35.151Z,76.90
2022-12-03T22:29:03.558Z,76.22
2022-12-03T22:31:32.767Z,76.43
2022-12-03T22:34:00.282Z,77.17
2022-12-03T22:36:28.069Z,78.22
2022-12-03T22:38:55.857Z,77.71
2022-12-03T22:41:24.018Z,77.35
2022-12-03T22:43:51.603Z,77.13
2022-12-03T22:46:19.578Z,75.73
2022-12-03T22:48:47.508Z,77.08
2022-12-03T22:51:23.261Z,75.54
2022-12-03T22:54:00.136Z,75.57
2022-12-03T22:56:30.440Z,74.67
2022-12-03T22:58:58.476Z,73.44
2022-12-03T23:01:33.354Z,74.01
2022-12-03T23:04:02.143Z,74.59
2022-12-03T23:06:31.241Z,75.24
2022-12-03T23:08:59.566Z,74.57
2022-12-03T23:11:28.435Z,74.53
2022-12-03T23:13:57.201Z,75.23
2022-12-03T23:16:31.459Z,75.20
2022-12-03T23:19:01.391Z,75.10
2022-12-03T23:21:33.042Z,75.02
2022-12-03T23:24:03.495Z,75.30
2022-12-03T23:26:36.766Z,74.80
2022-12-03T23:29:06.175Z,75.86
2022-12-03T23:31:34.550Z,76.01
2022-12-03T23:34:03.212Z,76.56
2022-12-03T23:36:33.670Z,76.16
2022-12-03T23:39:01.337Z,76.27
2022-12-03T23:41:29.243Z,76.82
2022-12-03T23:43:57.514Z,76.34
2022-12-03T23:46:27.568Z,76.21
2022-12-03T23:48:58.534Z,76.48
2022-12-03T23:51:26.893Z,77.53
2022-12-03T23:53:56.191Z,77.22
2022-12-03T23:56:29.238Z,76.33
2022-12-03T23:58:58.145Z,76.24
